Time;durP1;ratioP1;P1;durP2;ratioP2;P2;SDS_P1;SDS_P2;PMS_P1;PMS_P2;Temp;Humidity;BMP_temperature;BMP_pressure;BME280_temperature;BME280_humidity;BME280_pressure;Samples;Min_cycle;Max_cycle;Signal;HPM_P1;HPM_P2
2021/03/09 00:00:55;;;;;;;;;;;-2.10;99.90;;;;;;5079221;28;20433;-77
2021/03/09 00:03:20;;;;;;;;;;;-2.20;99.90;;;;;;5087547;28;19955;-77
2021/03/09 00:05:46;;;;;;;;;;;-2.20;99.90;;;;;;5094343;28;19938;-75
2021/03/09 00:08:12;;;;;;;;;;;-2.30;99.90;;;;;;5095581;28;19947;-76
2021/03/09 00:10:38;;;;;;;;;;;-2.30;99.90;;;;;;5098555;28;19912;-77
2021/03/09 00:13:03;;;;;;;;;;;-2.40;99.90;;;;;;5097329;28;19934;-77
2021/03/09 00:15:29;;;;;;;;;;;-2.40;99.90;;;;;;5097095;28;20388;-74
2021/03/09 00:17:54;;;;;;;;;;;-2.40;99.90;;;;;;5094969;28;19911;-77
2021/03/09 00:20:20;;;;;;;;;;;-2.40;99.90;;;;;;5096682;28;19908;-77
2021/03/09 00:22:45;;;;;;;;;;;-2.40;99.90;;;;;;5099643;28;20369;-76
2021/03/09 00:25:11;;;;;;;;;;;-2.40;99.90;;;;;;5093731;28;20453;-77
2021/03/09 00:27:37;;;;;;;;;;;-2.40;99.90;;;;;;5092811;28;19916;-77
2021/03/09 00:30:02;;;;;;;;;;;-2.40;99.90;;;;;;5095142;28;20010;-77
2021/03/09 00:32:28;;;;;;;;;;;-2.40;99.90;;;;;;5085003;28;20293;-77
2021/03/09 00:34:53;;;;;;;;;;;-2.40;99.90;;;;;;5091098;28;19920;-74
2021/03/09 00:37:19;;;;;;;;;;;-2.40;99.90;;;;;;5099353;28;20367;-77
2021/03/09 00:39:44;;;;;;;;;;;-2.40;99.90;;;;;;5100165;28;19952;-77
2021/03/09 00:42:10;;;;;;;;;;;-2.40;99.90;;;;;;5100646;28;19923;-76
2021/03/09 00:44:36;;;;;;;;;;;-2.40;99.90;;;;;;5101253;28;19908;-77
2021/03/09 00:47:01;;;;;;;;;;;-2.50;99.90;;;;;;5101582;28;20537;-77
2021/03/09 00:49:27;;;;;;;;;;;-2.50;99.90;;;;;;5100553;28;19961;-77
2021/03/09 00:51:52;;;;;;;;;;;-2.50;99.90;;;;;;5098089;28;19932;-77
2021/03/09 00:54:18;;;;;;;;;;;-2.50;99.90;;;;;;5098681;28;19911;-75
2021/03/09 00:56:43;;;;;;;;;;;-2.50;99.90;;;;;;5099401;28;19952;-77
2021/03/09 00:59:09;;;;;;;;;;;-2.60;99.90;;;;;;5098695;28;19912;-77
2021/03/09 01:01:34;;;;;;;;;;;-2.60;99.90;;;;;;5099228;28;19908;-76
2021/03/09 01:04:00;;;;;;;;;;;-2.60;99.90;;;;;;5100271;28;19949;-77
2021/03/09 01:06:25;;;;;;;;;;;-2.60;99.90;;;;;;5096550;28;19908;-76
2021/03/09 01:08:51;;;;;;;;;;;-2.60;99.90;;;;;;5100233;28;19955;-77
2021/03/09 01:11:16;;;;;;;;;;;-2.70;99.90;;;;;;5102733;28;20281;-74
2021/03/09 01:13:42;;;;;;;;;;;-2.70;99.90;;;;;;5100403;28;19908;-77
2021/03/09 01:16:07;;;;;;;;;;;-2.70;99.90;;;;;;5098960;28;19958;-76
2021/03/09 01:18:33;;;;;;;;;;;-2.70;99.90;;;;;;5101656;28;19954;-74
2021/03/09 01:20:58;;;;;;;;;;;-2.70;99.90;;;;;;5100097;28;20284;-77
2021/03/09 01:23:24;;;;;;;;;;;-2.70;99.90;;;;;;5100330;28;19908;-77
2021/03/09 01:25:49;;;;;;;;;;;-2.70;99.90;;;;;;5099037;28;19908;-76
2021/03/09 01:28:15;;;;;;;;;;;-2.70;99.90;;;;;;5099107;28;19912;-74
2021/03/09 01:30:40;;;;;;;;;;;-2.70;99.90;;;;;;5100569;28;19912;-77
2021/03/09 01:33:06;;;;;;;;;;;-2.80;99.90;;;;;;5095968;28;20285;-77
2021/03/09 01:35:31;;;;;;;;;;;-2.80;99.90;;;;;;5099354;28;19916;-75
2021/03/09 01:37:57;;;;;;;;;;;-2.80;99.90;;;;;;5099794;28;19915;-77
2021/03/09 01:40:23;;;;;;;;;;;-2.80;99.90;;;;;;5098365;28;20395;-77
2021/03/09 01:42:48;;;;;;;;;;;-2.80;99.90;;;;;;5097738;28;19991;-77
2021/03/09 01:45:14;;;;;;;;;;;-2.80;99.90;;;;;;5098072;28;20355;-77
2021/03/09 01:47:41;;;;;;;;;;;-2.80;99.90;;;;;;5095438;28;19909;-76
2021/03/09 01:50:07;;;;;;;;;;;-2.80;99.90;;;;;;5098303;28;19919;-77
2021/03/09 01:52:33;;;;;;;;;;;-2.80;99.90;;;;;;5089281;28;19909;-77
2021/03/09 01:54:58;;;;;;;;;;;-2.80;99.90;;;;;;5096791;28;20411;-77
2021/03/09 01:57:24;;;;;;;;;;;-2.80;99.90;;;;;;5098319;28;19908;-77
2021/03/09 01:59:50;;;;;;;;;;;-2.80;99.90;;;;;;5091490;28;19912;-73
2021/03/09 02:02:15;;;;;;;;;;;-2.80;99.90;;;;;;5084853;28;19952;-77
2021/03/09 02:04:41;;;;;;;;;;;-2.80;99.90;;;;;;5111607;28;20279;-77
2021/03/09 02:07:06;;;;;;;;;;;-2.90;99.90;;;;;;5118202;28;19959;-77
2021/03/09 02:09:32;;;;;;;;;;;-2.90;99.90;;;;;;5118627;28;19919;-74
2021/03/09 02:12:03;;;;;;;;;;;-2.90;99.90;;;;;;5115736;28;19972;-77
2021/03/09 02:14:47;;;;;;;;;;;-3.00;99.90;;;;;;5100241;28;20368;-77
2021/03/09 02:17:19;;;;;;;;;;;-3.00;99.90;;;;;;5116718;28;19915;-77
2021/03/09 02:20:01;;;;;;;;;;;-3.00;99.90;;;;;;5119117;28;19916;-76
2021/03/09 02:22:29;;;;;;;;;;;-3.00;99.90;;;;;;5117004;28;19908;-77
2021/03/09 02:24:55;;;;;;;;;;;-3.00;99.90;;;;;;5117806;28;19908;-76
2021/03/09 02:27:28;;;;;;;;;;;-3.00;99.90;;;;;;5117050;28;19961;-74
2021/03/09 02:30:09;;;;;;;;;;;-3.00;99.90;;;;;;5117415;28;19922;-76
2021/03/09 02:32:37;;;;;;;;;;;-3.00;99.90;;;;;;5104004;28;20373;-76
2021/03/09 02:35:04;;;;;;;;;;;-3.10;99.90;;;;;;5088004;28;19922;-76
2021/03/09 02:37:35;;;;;;;;;;;-3.10;99.90;;;;;;5097182;28;19958;-77
2021/03/09 02:40:05;;;;;;;;;;;-3.10;99.90;;;;;;5098094;28;20376;-76
2021/03/09 02:42:33;;;;;;;;;;;-3.10;99.90;;;;;;5095822;28;20002;-77
2021/03/09 02:44:59;;;;;;;;;;;-3.10;99.90;;;;;;5096737;28;19975;-75
2021/03/09 02:47:25;;;;;;;;;;;-3.10;99.90;;;;;;5094466;28;19909;-74
2021/03/09 02:49:53;;;;;;;;;;;-3.20;99.90;;;;;;5096383;28;20457;-77
2021/03/09 02:52:20;;;;;;;;;;;-3.10;99.90;;;;;;5096941;28;19912;-75
2021/03/09 02:55:20;;;;;;;;;;;-3.10;99.90;;;;;;5095741;28;19993;-76
2021/03/09 02:57:47;;;;;;;;;;;-3.10;99.90;;;;;;5094502;28;19908;-77
2021/03/09 03:00:13;;;;;;;;;;;-3.10;99.90;;;;;;5095738;28;19999;-77
2021/03/09 03:02:39;;;;;;;;;;;-3.00;99.90;;;;;;5095451;28;19912;-77
2021/03/09 03:05:06;;;;;;;;;;;-3.00;99.90;;;;;;5095969;28;19908;-76
2021/03/09 03:07:33;;;;;;;;;;;-3.00;99.90;;;;;;5088702;28;19970;-77
2021/03/09 03:09:59;;;;;;;;;;;-3.00;99.90;;;;;;5097492;28;19973;-77
2021/03/09 03:12:25;;;;;;;;;;;-3.00;99.90;;;;;;5096320;28;20377;-77
2021/03/09 03:14:51;;;;;;;;;;;-3.00;99.90;;;;;;5087099;28;20011;-77
2021/03/09 03:17:17;;;;;;;;;;;-3.00;99.90;;;;;;5089427;28;19908;-77
2021/03/09 03:19:45;;;;;;;;;;;-3.00;99.90;;;;;;5096459;28;19915;-77
2021/03/09 03:22:10;;;;;;;;;;;-3.00;99.90;;;;;;5096808;28;19977;-76
2021/03/09 03:24:36;;;;;;;;;;;-3.00;99.90;;;;;;5095897;28;20419;-76
2021/03/09 03:27:01;;;;;;;;;;;-3.00;99.90;;;;;;5097659;28;20250;-75
2021/03/09 03:29:27;;;;;;;;;;;-3.00;99.90;;;;;;5096594;28;19938;-76
2021/03/09 03:31:53;;;;;;;;;;;-3.10;99.90;;;;;;5097879;28;19915;-77
2021/03/09 03:34:19;;;;;;;;;;;-3.10;99.90;;;;;;5095440;28;19912;-77
2021/03/09 03:36:44;;;;;;;;;;;-3.10;99.90;;;;;;5092731;28;19950;-76
2021/03/09 03:39:10;;;;;;;;;;;-3.10;99.90;;;;;;5092576;28;19920;-75
2021/03/09 03:41:35;;;;;;;;;;;-3.20;99.90;;;;;;5097515;28;19912;-77
2021/03/09 03:44:01;;;;;;;;;;;-3.20;99.90;;;;;;5098687;28;19909;-77
2021/03/09 03:46:27;;;;;;;;;;;-3.30;99.90;;;;;;5098872;28;20004;-76
2021/03/09 03:48:52;;;;;;;;;;;-3.30;99.90;;;;;;5097468;28;19912;-76
2021/03/09 03:51:18;;;;;;;;;;;-3.30;99.90;;;;;;5097406;28;19912;-75
2021/03/09 03:53:57;;;;;;;;;;;-3.30;99.90;;;;;;5097765;28;19908;-77
2021/03/09 03:56:39;;;;;;;;;;;-3.40;99.90;;;;;;5097510;28;20327;-75
2021/03/09 03:59:08;;;;;;;;;;;-3.40;99.90;;;;;;5098846;28;19908;-74
2021/03/09 04:01:34;;;;;;;;;;;-3.30;99.90;;;;;;5089952;28;20362;-76
2021/03/09 04:04:04;;;;;;;;;;;-3.30;99.90;;;;;;5097895;28;19912;-77
2021/03/09 04:06:29;;;;;;;;;;;-3.30;99.90;;;;;;5097174;28;20276;-76
2021/03/09 04:08:58;;;;;;;;;;;-3.30;99.90;;;;;;5093383;28;19912;-76
2021/03/09 04:11:24;;;;;;;;;;;-3.30;99.90;;;;;;5098707;28;19914;-76
2021/03/09 04:13:50;;;;;;;;;;;-3.30;99.90;;;;;;5097052;28;19955;-76
2021/03/09 04:16:16;;;;;;;;;;;-3.30;99.90;;;;;;5097494;28;20010;-77
2021/03/09 04:18:43;;;;;;;;;;;-3.30;99.90;;;;;;5098404;28;19948;-76
2021/03/09 04:21:08;;;;;;;;;;;-3.30;99.90;;;;;;5098974;28;19912;-77
2021/03/09 04:23:35;;;;;;;;;;;-3.30;99.90;;;;;;5098005;28;20372;-76
2021/03/09 04:26:01;;;;;;;;;;;-3.30;99.90;;;;;;5097360;28;19915;-76
2021/03/09 04:28:27;;;;;;;;;;;-3.30;99.90;;;;;;5100151;28;20365;-74
2021/03/09 04:30:53;;;;;;;;;;;-3.30;99.90;;;;;;5099181;28;19908;-75
2021/03/09 04:33:19;;;;;;;;;;;-3.30;99.90;;;;;;5084510;28;19920;-77
2021/03/09 04:35:44;;;;;;;;;;;-3.40;99.90;;;;;;5088610;28;20327;-77
2021/03/09 04:38:10;;;;;;;;;;;-3.40;99.90;;;;;;5097686;28;19919;-76
2021/03/09 04:40:36;;;;;;;;;;;-3.50;99.90;;;;;;5098055;28;19908;-75
2021/03/09 04:43:02;;;;;;;;;;;-3.40;99.90;;;;;;5097796;28;19909;-76
2021/03/09 04:45:28;;;;;;;;;;;-3.40;99.90;;;;;;5096796;28;20018;-76
2021/03/09 04:47:53;;;;;;;;;;;-3.40;99.90;;;;;;5099336;28;19908;-73
2021/03/09 04:50:20;;;;;;;;;;;-3.40;99.90;;;;;;5097693;28;20373;-77
2021/03/09 04:52:47;;;;;;;;;;;-3.40;99.90;;;;;;5098702;28;19916;-75
2021/03/09 04:55:19;;;;;;;;;;;-3.40;99.90;;;;;;5098446;28;19908;-76
2021/03/09 04:57:44;;;;;;;;;;;-3.40;99.90;;;;;;5098049;28;19908;-76
2021/03/09 05:00:14;;;;;;;;;;;-3.40;99.90;;;;;;5097549;28;20383;-74
2021/03/09 05:02:39;;;;;;;;;;;-3.40;99.90;;;;;;5096737;28;19949;-76
2021/03/09 05:05:05;;;;;;;;;;;-3.40;99.90;;;;;;5097751;28;19934;-76
2021/03/09 05:07:31;;;;;;;;;;;-3.40;99.90;;;;;;5095040;28;20373;-76
2021/03/09 05:09:56;;;;;;;;;;;-3.40;99.90;;;;;;5097577;28;19919;-76
2021/03/09 05:12:22;;;;;;;;;;;-3.40;99.90;;;;;;5097904;28;19908;-74
2021/03/09 05:14:47;;;;;;;;;;;-3.40;99.90;;;;;;5099724;28;19944;-76
2021/03/09 05:17:13;;;;;;;;;;;-3.40;99.90;;;;;;5099912;28;19985;-76
2021/03/09 05:19:39;;;;;;;;;;;-3.40;99.90;;;;;;5095321;28;19920;-76
2021/03/09 05:22:04;;;;;;;;;;;-3.40;99.90;;;;;;5099256;28;19908;-74
2021/03/09 05:24:30;;;;;;;;;;;-3.40;99.90;;;;;;5103798;28;19977;-76
2021/03/09 05:26:55;;;;;;;;;;;-3.30;99.90;;;;;;5103513;28;19914;-75
2021/03/09 05:29:21;;;;;;;;;;;-3.30;99.90;;;;;;5102359;28;19938;-77
2021/03/09 05:31:46;;;;;;;;;;;-3.30;99.90;;;;;;5102466;28;19915;-74
2021/03/09 05:34:12;;;;;;;;;;;-3.30;99.90;;;;;;5102091;28;19915;-76
2021/03/09 05:36:37;;;;;;;;;;;-3.40;99.90;;;;;;5099363;28;19912;-76
2021/03/09 05:39:03;;;;;;;;;;;-3.40;99.90;;;;;;5089503;28;19912;-74
2021/03/09 05:41:28;;;;;;;;;;;-3.40;99.90;;;;;;5091325;28;19916;-74
2021/03/09 05:43:54;;;;;;;;;;;-3.30;99.90;;;;;;5101154;28;19912;-76
2021/03/09 05:46:19;;;;;;;;;;;-3.30;99.90;;;;;;5100183;28;19908;-73
2021/03/09 05:48:45;;;;;;;;;;;-3.30;99.90;;;;;;5103172;28;19912;-74
2021/03/09 05:51:11;;;;;;;;;;;-3.30;99.90;;;;;;5101193;28;19908;-76
2021/03/09 05:53:36;;;;;;;;;;;-3.40;99.90;;;;;;5091008;28;19908;-76
2021/03/09 05:56:05;;;;;;;;;;;-3.40;99.90;;;;;;5099436;28;19908;-76
2021/03/09 05:58:31;;;;;;;;;;;-3.40;99.90;;;;;;5101686;28;20069;-76
2021/03/09 06:00:57;;;;;;;;;;;-3.30;99.90;;;;;;5084257;28;19966;-76
2021/03/09 06:03:26;;;;;;;;;;;-3.30;99.90;;;;;;5087445;28;19909;-77
2021/03/09 06:05:51;;;;;;;;;;;-3.30;99.90;;;;;;5097620;28;20296;-74
2021/03/09 06:08:17;;;;;;;;;;;-3.30;99.90;;;;;;5098676;28;19908;-76
2021/03/09 06:10:43;;;;;;;;;;;-3.30;99.90;;;;;;5095911;28;20339;-77
2021/03/09 06:13:08;;;;;;;;;;;-3.30;99.90;;;;;;5096855;28;19988;-77
2021/03/09 06:15:53;;;;;;;;;;;-3.30;99.90;;;;;;5096619;28;19912;-74
2021/03/09 06:18:25;;;;;;;;;;;-3.30;99.90;;;;;;5096143;28;19986;-76
2021/03/09 06:21:06;;;;;;;;;;;-3.20;99.90;;;;;;5097578;28;19915;-76
2021/03/09 06:23:31;;;;;;;;;;;-3.20;99.90;;;;;;5087085;28;19937;-75
2021/03/09 06:25:57;;;;;;;;;;;-3.10;99.90;;;;;;5093355;28;19908;-75
2021/03/09 06:28:29;;;;;;;;;;;-3.10;99.90;;;;;;5093049;28;19950;-75
2021/03/09 06:30:54;;;;;;;;;;;-3.00;99.90;;;;;;5093121;28;19915;-75
2021/03/09 06:33:27;;;;;;;;;;;-3.10;99.90;;;;;;5079838;28;19913;-75
2021/03/09 06:35:52;;;;;;;;;;;-3.00;99.90;;;;;;5087455;28;19923;-75
2021/03/09 06:38:18;;;;;;;;;;;-2.90;99.90;;;;;;5092897;28;19913;-75
2021/03/09 06:40:44;;;;;;;;;;;-2.90;99.90;;;;;;5091652;28;19919;-75
2021/03/09 06:43:16;;;;;;;;;;;-2.80;99.90;;;;;;5091682;28;19931;-74
2021/03/09 06:45:42;;;;;;;;;;;-2.80;99.90;;;;;;5091302;28;19993;-75
2021/03/09 06:48:17;;;;;;;;;;;-2.70;99.90;;;;;;5092150;28;20587;-75
2021/03/09 06:50:43;;;;;;;;;;;-2.50;99.90;;;;;;5091025;28;19962;-75
2021/03/09 06:53:08;;;;;;;;;;;-2.40;99.90;;;;;;5092420;28;19912;-75
2021/03/09 06:55:34;;;;;;;;;;;-2.30;99.90;;;;;;5092233;28;20294;-75
2021/03/09 06:58:07;;;;;;;;;;;-2.30;99.90;;;;;;5091078;28;19908;-75
2021/03/09 07:00:33;;;;;;;;;;;-2.20;99.90;;;;;;5092398;28;19912;-75
2021/03/09 07:02:59;;;;;;;;;;;-2.10;99.90;;;;;;5092218;28;20270;-75
2021/03/09 07:05:24;;;;;;;;;;;-2.00;99.90;;;;;;5091399;28;19912;-75
2021/03/09 07:07:49;;;;;;;;;;;-1.90;99.90;;;;;;5089593;28;19908;-75
2021/03/09 07:10:16;;;;;;;;;;;-1.80;99.90;;;;;;5091621;28;19912;-75
2021/03/09 07:12:48;;;;;;;;;;;-1.70;99.90;;;;;;5091800;28;19971;-75
2021/03/09 07:15:15;;;;;;;;;;;-1.60;99.90;;;;;;5090528;28;20015;-75
2021/03/09 07:17:41;;;;;;;;;;;-1.50;99.90;;;;;;5089999;28;19908;-75
2021/03/09 07:20:07;;;;;;;;;;;-1.40;99.90;;;;;;5091764;28;20312;-75
2021/03/09 07:22:34;;;;;;;;;;;-1.30;99.90;;;;;;5091815;28;19953;-75
2021/03/09 07:25:07;;;;;;;;;;;-1.20;99.90;;;;;;5092130;28;19977;-75
2021/03/09 07:27:38;;;;;;;;;;;-1.00;99.90;;;;;;5091780;28;19948;-75
2021/03/09 07:30:05;;;;;;;;;;;-0.90;99.90;;;;;;5090884;28;19951;-75
2021/03/09 07:32:31;;;;;;;;;;;-0.80;99.90;;;;;;5088808;28;19908;-75
2021/03/09 07:34:59;;;;;;;;;;;-0.60;99.90;;;;;;5091246;28;19923;-76
2021/03/09 07:37:25;;;;;;;;;;;-0.40;99.90;;;;;;5088132;28;19920;-75
2021/03/09 07:39:51;;;;;;;;;;;-0.20;99.90;;;;;;5090641;28;20813;-75
2021/03/09 07:42:17;;;;;;;;;;;-0.10;99.90;;;;;;5092042;28;19954;-75
2021/03/09 07:44:43;;;;;;;;;;;0.10;99.90;;;;;;5090305;28;19908;-75
2021/03/09 07:47:09;;;;;;;;;;;0.20;99.90;;;;;;5090189;28;19912;-75
2021/03/09 07:49:35;;;;;;;;;;;0.40;99.90;;;;;;5091720;28;20357;-76
2021/03/09 07:52:14;;;;;;;;;;;0.60;99.90;;;;;;5091863;28;20386;-76
2021/03/09 07:55:00;;;;;;;;;;;0.80;99.90;;;;;;5075852;28;20444;-76
2021/03/09 07:57:25;;;;;;;;;;;1.00;99.90;;;;;;5081529;28;19999;-76
2021/03/09 07:59:55;;;;;;;;;;;1.20;99.90;;;;;;5087903;28;20361;-76
2021/03/09 08:02:39;;;;;;;;;;;1.30;99.90;;;;;;5080607;28;19908;-76
2021/03/09 08:05:09;;;;;;;;;;;1.50;99.90;;;;;;5090160;28;19958;-76
2021/03/09 08:07:47;;;;;;;;;;;1.70;99.90;;;;;;5091083;28;20446;-76
2021/03/09 08:10:27;;;;;;;;;;;1.80;99.90;;;;;;5091627;28;19922;-76
2021/03/09 08:13:16;;;;;;;;;;;1.90;99.90;;;;;;5090383;28;19908;-76
2021/03/09 08:15:42;;;;;;;;;;;2.20;99.90;;;;;;5090980;28;19908;-76
2021/03/09 08:18:17;;;;;;;;;;;2.40;99.90;;;;;;5091425;28;19919;-76
2021/03/09 08:20:55;;;;;;;;;;;2.50;99.90;;;;;;5091301;28;19915;-76
2021/03/09 08:23:33;;;;;;;;;;;2.80;99.90;;;;;;5091496;28;19914;-76
2021/03/09 08:26:00;;;;;;;;;;;3.20;99.90;;;;;;5091064;28;19912;-76
2021/03/09 08:28:32;;;;;;;;;;;3.60;99.90;;;;;;5091324;28;19908;-76
2021/03/09 08:31:26;;;;;;;;;;;3.90;99.90;;;;;;5091209;28;20266;-77
2021/03/09 08:33:53;;;;;;;;;;;4.20;99.90;;;;;;5084030;28;19970;-77
2021/03/09 08:36:19;;;;;;;;;;;4.60;99.90;;;;;;5077806;28;19974;-76
2021/03/09 08:41:35;;;;;;;;;;;5.20;99.90;;;;;;5090024;28;20356;-77
2021/03/09 08:44:20;;;;;;;;;;;5.60;99.90;;;;;;5089824;28;19954;-77
2021/03/09 08:47:04;;;;;;;;;;;5.90;99.90;;;;;;5090693;28;19912;-77
2021/03/09 08:49:51;;;;;;;;;;;6.10;99.90;;;;;;5090922;28;19916;-77
2021/03/09 08:52:17;;;;;;;;;;;6.50;99.90;;;;;;5091056;28;19915;-77
2021/03/09 08:54:43;;;;;;;;;;;6.50;99.90;;;;;;5090957;28;19908;-77
2021/03/09 08:57:27;;;;;;;;;;;6.50;99.90;;;;;;5093232;28;19912;-77
2021/03/09 08:59:59;;;;;;;;;;;6.40;99.90;;;;;;5094848;28;20372;-77
2021/03/09 09:02:27;;;;;;;;;;;6.50;99.90;;;;;;5085313;28;19909;-77
2021/03/09 09:04:52;;;;;;;;;;;6.70;99.90;;;;;;5094611;28;19912;-77
2021/03/09 09:07:18;;;;;;;;;;;7.10;99.90;;;;;;5094501;28;20026;-77
2021/03/09 09:09:43;;;;;;;;;;;7.30;99.90;;;;;;5094619;28;19912;-77
2021/03/09 09:12:38;;;;;;;;;;;7.40;99.80;;;;;;5094461;28;19912;-77
2021/03/09 09:15:08;;;;;;;;;;;7.70;99.80;;;;;;5066708;28;19952;-77
2021/03/09 09:17:34;;;;;;;;;;;7.90;98.20;;;;;;5086515;28;20043;-75
2021/03/09 09:20:01;;;;;;;;;;;8.00;98.80;;;;;;5094807;28;19910;-76
2021/03/09 09:22:28;;;;;;;;;;;8.30;99.00;;;;;;5092353;28;19912;-77
2021/03/09 09:24:57;;;;;;;;;;;8.40;98.40;;;;;;5094286;28;20364;-75
2021/03/09 09:27:22;;;;;;;;;;;8.60;97.20;;;;;;5094136;28;19912;-77
2021/03/09 09:29:57;;;;;;;;;;;8.80;96.90;;;;;;5091028;28;19974;-77
2021/03/09 09:32:23;;;;;;;;;;;8.80;96.80;;;;;;5090034;28;19994;-77
2021/03/09 09:34:58;;;;;;;;;;;8.90;96.30;;;;;;5094192;28;19920;-77
2021/03/09 09:37:24;;;;;;;;;;;8.80;95.30;;;;;;5092677;28;19914;-77
2021/03/09 09:39:50;;;;;;;;;;;8.70;94.50;;;;;;5090698;28;20011;-74
2021/03/09 09:42:16;;;;;;;;;;;8.70;94.90;;;;;;5088766;28;19954;-75
2021/03/09 09:44:42;;;;;;;;;;;8.60;95.20;;;;;;5091534;28;20288;-75
2021/03/09 09:47:08;;;;;;;;;;;8.60;94.50;;;;;;5083209;28;20345;-76
2021/03/09 09:49:35;;;;;;;;;;;8.70;94.80;;;;;;5093301;28;19912;-75
2021/03/09 09:52:00;;;;;;;;;;;8.80;93.90;;;;;;5093941;28;20064;-75
2021/03/09 09:54:26;;;;;;;;;;;9.00;93.90;;;;;;5094090;28;19985;-75
2021/03/09 09:56:51;;;;;;;;;;;9.20;94.40;;;;;;5091795;28;19943;-75
2021/03/09 09:59:26;;;;;;;;;;;9.30;93.70;;;;;;5090445;28;19944;-75
2021/03/09 10:01:52;;;;;;;;;;;9.40;93.60;;;;;;5081621;28;20379;-75
2021/03/09 10:04:17;;;;;;;;;;;9.70;93.00;;;;;;5090221;28;20002;-75
2021/03/09 10:06:47;;;;;;;;;;;9.80;93.30;;;;;;5093318;28;20304;-75
2021/03/09 10:09:15;;;;;;;;;;;9.90;92.70;;;;;;5093647;28;19912;-75
2021/03/09 10:11:48;;;;;;;;;;;10.20;91.90;;;;;;5093541;28;19908;-75
2021/03/09 10:14:14;;;;;;;;;;;10.30;91.50;;;;;;5093650;28;19953;-75
2021/03/09 10:16:40;;;;;;;;;;;10.50;90.60;;;;;;5091453;28;19908;-75
2021/03/09 10:19:10;;;;;;;;;;;10.40;90.00;;;;;;5093412;28;19961;-75
2021/03/09 10:21:36;;;;;;;;;;;10.50;90.40;;;;;;5093368;28;19907;-75
2021/03/09 10:24:02;;;;;;;;;;;10.30;90.10;;;;;;5092097;28;19908;-75
2021/03/09 10:26:28;;;;;;;;;;;10.40;90.20;;;;;;5093438;28;19912;-75
2021/03/09 10:29:00;;;;;;;;;;;10.30;89.90;;;;;;5089023;28;20306;-75
2021/03/09 10:31:25;;;;;;;;;;;10.30;89.80;;;;;;5093227;28;20079;-75
2021/03/09 10:34:01;;;;;;;;;;;10.50;89.90;;;;;;5090789;28;20015;-75
2021/03/09 10:36:26;;;;;;;;;;;10.60;88.90;;;;;;5082734;28;19916;-75
2021/03/09 10:39:09;;;;;;;;;;;10.80;88.90;;;;;;5091593;28;19916;-75
2021/03/09 10:41:34;;;;;;;;;;;11.00;87.80;;;;;;5092820;28;19908;-75
2021/03/09 10:44:00;;;;;;;;;;;11.20;85.50;;;;;;5092800;28;19938;-75
2021/03/09 10:46:25;;;;;;;;;;;11.30;86.10;;;;;;5092389;28;19912;-75
2021/03/09 10:48:51;;;;;;;;;;;11.60;83.60;;;;;;5092617;28;20129;-76
2021/03/09 10:51:20;;;;;;;;;;;11.60;83.60;;;;;;5092845;28;19950;-75
2021/03/09 10:53:46;;;;;;;;;;;11.50;82.90;;;;;;5092754;28;19915;-75
2021/03/09 10:56:12;;;;;;;;;;;11.70;80.80;;;;;;5092261;28;20441;-75
2021/03/09 10:58:38;;;;;;;;;;;12.00;83.00;;;;;;5092712;28;19908;-75
2021/03/09 11:01:03;;;;;;;;;;;12.20;80.90;;;;;;5092460;28;20438;-76
2021/03/09 11:03:29;;;;;;;;;;;12.50;79.80;;;;;;5092617;28;20387;-76
2021/03/09 11:05:54;;;;;;;;;;;12.70;78.50;;;;;;5089481;28;19908;-75
2021/03/09 11:08:21;;;;;;;;;;;12.60;76.10;;;;;;5091109;28;19946;-75
2021/03/09 11:10:46;;;;;;;;;;;12.50;75.90;;;;;;5090503;28;19931;-75
2021/03/09 11:13:14;;;;;;;;;;;12.30;76.40;;;;;;5091085;28;20352;-75
2021/03/09 11:15:40;;;;;;;;;;;12.10;75.60;;;;;;5091945;28;19994;-75
2021/03/09 11:18:05;;;;;;;;;;;11.90;77.40;;;;;;5090468;28;19992;-75
2021/03/09 11:20:31;;;;;;;;;;;11.70;76.00;;;;;;5092300;28;19987;-76
2021/03/09 11:22:56;;;;;;;;;;;11.30;72.20;;;;;;5092680;28;20017;-75
2021/03/09 11:25:22;;;;;;;;;;;10.80;72.40;;;;;;5091956;28;19934;-75
2021/03/09 11:27:47;;;;;;;;;;;10.50;72.40;;;;;;5091860;28;20416;-75
2021/03/09 11:30:13;;;;;;;;;;;10.10;74.30;;;;;;5081484;28;19919;-75
2021/03/09 11:32:38;;;;;;;;;;;10.00;77.00;;;;;;5091621;28;20363;-75
2021/03/09 11:35:04;;;;;;;;;;;10.00;76.50;;;;;;5091097;28;19975;-76
2021/03/09 11:37:30;;;;;;;;;;;10.00;76.80;;;;;;5090132;28;19991;-76
2021/03/09 11:39:55;;;;;;;;;;;10.00;77.80;;;;;;5091682;28;19955;-75
2021/03/09 11:42:21;;;;;;;;;;;9.90;76.40;;;;;;5091927;28;19908;-75
2021/03/09 11:44:46;;;;;;;;;;;10.00;76.50;;;;;;5091916;28;19908;-75
2021/03/09 11:47:12;;;;;;;;;;;10.00;77.40;;;;;;5091629;28;20353;-75
2021/03/09 11:49:37;;;;;;;;;;;10.10;77.50;;;;;;5091812;28;20365;-75
2021/03/09 11:52:03;;;;;;;;;;;10.10;75.00;;;;;;5090381;28;19943;-75
2021/03/09 11:54:28;;;;;;;;;;;10.20;77.40;;;;;;5091525;28;19927;-75
2021/03/09 11:56:53;;;;;;;;;;;10.40;76.40;;;;;;5090101;28;20355;-76
2021/03/09 11:59:19;;;;;;;;;;;10.60;77.20;;;;;;5091578;28;19908;-75
2021/03/09 12:01:44;;;;;;;;;;;10.70;76.30;;;;;;5080587;28;20391;-76
2021/03/09 12:04:10;;;;;;;;;;;10.70;76.10;;;;;;5091604;28;19937;-76
2021/03/09 12:06:35;;;;;;;;;;;10.50;73.80;;;;;;5088961;28;19908;-75
2021/03/09 12:09:01;;;;;;;;;;;10.20;73.40;;;;;;5089533;28;20117;-75
2021/03/09 12:11:26;;;;;;;;;;;10.10;75.00;;;;;;5090526;28;20414;-75
2021/03/09 12:13:52;;;;;;;;;;;10.10;73.30;;;;;;5091494;28;19908;-75
2021/03/09 12:16:17;;;;;;;;;;;9.70;73.50;;;;;;5091082;28;19995;-75
2021/03/09 12:18:43;;;;;;;;;;;9.50;75.50;;;;;;5089031;28;19915;-75
2021/03/09 12:21:08;;;;;;;;;;;9.40;75.40;;;;;;5089421;28;19912;-76
2021/03/09 12:23:34;;;;;;;;;;;9.40;76.20;;;;;;5090839;28;19908;-75
2021/03/09 12:25:59;;;;;;;;;;;9.40;74.80;;;;;;5090457;28;19916;-75
2021/03/09 12:28:25;;;;;;;;;;;9.30;76.00;;;;;;5091138;28;19958;-75
2021/03/09 12:30:50;;;;;;;;;;;9.10;75.60;;;;;;5093008;28;19995;-75
2021/03/09 12:33:16;;;;;;;;;;;9.00;75.80;;;;;;5086248;28;20416;-75
2021/03/09 12:35:43;;;;;;;;;;;8.90;77.40;;;;;;5079282;28;20357;-75
2021/03/09 12:38:08;;;;;;;;;;;8.80;76.40;;;;;;5095129;28;19908;-75
2021/03/09 12:40:34;;;;;;;;;;;8.70;78.10;;;;;;5092357;28;19916;-75
2021/03/09 12:42:59;;;;;;;;;;;8.70;78.50;;;;;;5089614;28;19952;-77
2021/03/09 12:45:25;;;;;;;;;;;8.80;80.90;;;;;;5091028;28;19994;-76
2021/03/09 12:47:51;;;;;;;;;;;8.90;80.00;;;;;;5088578;28;20283;-75
2021/03/09 12:50:18;;;;;;;;;;;9.00;77.90;;;;;;5093748;28;20089;-75
2021/03/09 12:52:43;;;;;;;;;;;9.10;79.10;;;;;;5095108;28;19908;-75
2021/03/09 12:55:09;;;;;;;;;;;9.30;78.70;;;;;;5094707;28;19908;-75
2021/03/09 12:57:35;;;;;;;;;;;9.30;78.80;;;;;;5094385;28;19908;-75
2021/03/09 13:00:00;;;;;;;;;;;9.10;79.20;;;;;;5094892;28;19916;-75
2021/03/09 13:02:26;;;;;;;;;;;9.10;80.80;;;;;;5094229;28;20006;-75
2021/03/09 13:04:52;;;;;;;;;;;9.00;78.10;;;;;;5091786;28;19959;-75
2021/03/09 13:07:18;;;;;;;;;;;9.00;79.90;;;;;;5090222;28;20089;-75
2021/03/09 13:09:43;;;;;;;;;;;9.10;79.80;;;;;;5090274;28;19999;-75
2021/03/09 13:12:09;;;;;;;;;;;9.10;79.60;;;;;;5092994;28;20357;-75
2021/03/09 13:14:34;;;;;;;;;;;9.00;77.60;;;;;;5094649;28;19915;-75
2021/03/09 13:17:00;;;;;;;;;;;8.90;79.80;;;;;;5093128;28;19972;-75
2021/03/09 13:19:25;;;;;;;;;;;9.00;80.90;;;;;;5091977;28;20334;-75
2021/03/09 13:21:52;;;;;;;;;;;9.10;81.60;;;;;;5086133;28;19908;-76
2021/03/09 13:24:17;;;;;;;;;;;9.30;80.00;;;;;;5090980;28;20702;-75
2021/03/09 13:26:43;;;;;;;;;;;9.30;81.20;;;;;;5094050;28;19977;-75
2021/03/09 13:29:08;;;;;;;;;;;9.50;81.30;;;;;;5092901;28;19916;-75
2021/03/09 13:31:34;;;;;;;;;;;9.60;79.80;;;;;;5094252;28;19909;-75
2021/03/09 13:33:59;;;;;;;;;;;9.50;80.00;;;;;;5094254;28;19908;-75
2021/03/09 13:36:25;;;;;;;;;;;9.60;80.20;;;;;;5093837;28;19955;-75
2021/03/09 13:38:50;;;;;;;;;;;9.70;79.70;;;;;;5093858;28;19908;-76
2021/03/09 13:41:16;;;;;;;;;;;9.70;76.10;;;;;;5087195;28;19954;-75
2021/03/09 13:43:42;;;;;;;;;;;9.60;75.90;;;;;;5093893;28;19908;-76
2021/03/09 13:46:07;;;;;;;;;;;9.50;76.20;;;;;;5092421;28;20285;-75
2021/03/09 13:48:33;;;;;;;;;;;9.50;79.20;;;;;;5094080;28;19912;-75
2021/03/09 13:51:00;;;;;;;;;;;9.50;76.20;;;;;;5093941;28;19912;-76
2021/03/09 13:53:25;;;;;;;;;;;9.60;77.60;;;;;;5093771;28;20424;-76
2021/03/09 13:55:51;;;;;;;;;;;9.60;76.10;;;;;;5093583;28;19951;-75
2021/03/09 13:58:17;;;;;;;;;;;9.50;76.50;;;;;;5092413;28;19917;-75
2021/03/09 14:00:42;;;;;;;;;;;9.40;76.80;;;;;;5089443;28;19913;-75
2021/03/09 14:03:07;;;;;;;;;;;9.50;77.20;;;;;;5075423;28;19916;-75
2021/03/09 14:05:33;;;;;;;;;;;9.50;76.20;;;;;;5092607;28;20002;-75
2021/03/09 14:07:58;;;;;;;;;;;9.60;76.50;;;;;;5093298;28;19916;-75
2021/03/09 14:10:24;;;;;;;;;;;9.60;74.80;;;;;;5093783;28;20388;-75
2021/03/09 14:12:50;;;;;;;;;;;9.70;75.70;;;;;;5095428;28;19983;-75
2021/03/09 14:15:15;;;;;;;;;;;9.70;76.00;;;;;;5114338;28;20353;-75
2021/03/09 14:17:41;;;;;;;;;;;9.70;74.60;;;;;;5112909;28;19908;-75
2021/03/09 14:20:07;;;;;;;;;;;9.80;74.80;;;;;;5114042;28;19908;-75
2021/03/09 14:22:33;;;;;;;;;;;9.70;74.30;;;;;;5102717;28;19908;-75
2021/03/09 14:24:58;;;;;;;;;;;9.50;74.80;;;;;;5092270;28;20268;-75